Myrtle Beach International Airport
KMYR : rendu visible

Aérodrome :











RETROUVEZ-NOUS SUR...

 
LOGIN :

S'inscrire | Disclaimer

   EN    FR    IT 

 









Légende :    VFR   VFR Marginal   IFR   IFR Intensif   IFR Très Intensif
Visi : 
Plafond : 
>= 8 km
>= 3000ft
5 à 8 km
1000 à 3000 ft
1500m à 5 km
500 à 1000 ft
800 à 1500m
200 à 500 ft
< 800m
< 200 ft
Symboles :   Orages  Brouillard  Fortes neiges  Fortes précipitations  Vent > 20 kt






- Altitude de l'aérodrome : 25 ft
- Code IATA : MYR


KMYR - Myrtle Beach International

DERNIER METAR :
  • 251756Z 10009KT 10SM CLR 24/20 A3014 RMK AO2 SLP207 T02390200 10244 20217 58006

METARs EXPIRÉS :
  • 251656Z 10010KT 10SM SCT022 BKN080 24/20 A3016 RMK AO2 SLP213 T02390200
  • 251556Z 08009KT 10SM OVC020 23/19 A3017 RMK AO2 SLP216 T02330194
  • 251523Z 09008KT 10SM OVC016 23/19 A3017 RMK AO2

TAF KMYR
Valide du 25 à 18h jusqu'au 26 à 18h UTC


251720Z 2518/2618 10010KT P6SM BKN090
FM260700 07009KT P6SM BKN100
FM261500 07010KT P6SM BKN045
FM261700 08011KT P6SM BKN030
FIR KZJX / Amérique du Nord



MET'MAP, la Météo Aéronautique d'un coup d'oeil ! - Copyright ORBIFLY Décembre 2007 - Disclaimer

ORBIFLY MET'MAP TEAM :

Programmation & Développement : Alexandra Zaïnal
Sur une idée originale de : Baudouin d'Aumeries
Assistance à la programmation : Marc-Olivier Méhu
Soutien technique & logistique : Manuel Goepfert

Contact : metmap@orbifly.com




SOURCES & CREDITS :

   NOAA       Earth
Advisory